Time;durP1;ratioP1;P1;durP2;ratioP2;P2;SDS_P1;SDS_P2;PMS_P1;PMS_P2;Temp;Humidity;BMP_temperature;BMP_pressure;BME280_temperature;BME280_humidity;BME280_pressure;Samples;Min_cycle;Max_cycle;Signal;HPM_P1;HPM_P2
2023/05/09 00:01:38;;;;;;;17.77;12.60;;;15.30;99.90;;;;;;5114316;28;20051;-74
2023/05/09 00:04:04;;;;;;;;;;;15.30;99.90;;;;;;5114940;28;20055;-74
2023/05/09 00:06:31;;;;;;;15.10;11.43;;;15.20;99.90;;;;;;5114745;28;20347;-73
2023/05/09 00:08:57;;;;;;;13.00;9.88;;;15.10;99.90;;;;;;5114504;28;20375;-73
2023/05/09 00:11:22;;;;;;;15.05;11.55;;;15.10;99.90;;;;;;5114375;28;20038;-74
2023/05/09 00:13:49;;;;;;;13.13;10.60;;;15.10;99.90;;;;;;5114293;28;20035;-74
2023/05/09 00:16:15;;;;;;;13.75;10.65;;;15.10;99.90;;;;;;5114141;28;20047;-73
2023/05/09 00:18:42;;;;;;;15.40;10.35;;;15.10;99.90;;;;;;5114317;28;20122;-73
2023/05/09 00:21:09;;;;;;;14.43;11.13;;;15.10;99.90;;;;;;5113926;28;20082;-73
2023/05/09 00:23:36;;;;;;;13.38;10.98;;;15.00;99.90;;;;;;5113943;28;20083;-74
2023/05/09 00:26:01;;;;;;;12.77;10.15;;;15.00;99.90;;;;;;5114379;28;20039;-74
2023/05/09 00:28:27;;;;;;;14.40;10.63;;;15.00;99.90;;;;;;5114126;28;20047;-74
2023/05/09 00:30:53;;;;;;;12.53;9.90;;;15.00;99.90;;;;;;5113823;28;20036;-74
2023/05/09 00:33:19;;;;;;;12.97;9.50;;;14.90;99.90;;;;;;5114166;28;20028;-73
2023/05/09 00:35:44;;;;;;;12.10;9.27;;;14.90;99.90;;;;;;5113927;28;20124;-73
2023/05/09 00:38:11;;;;;;;11.33;9.43;;;14.80;99.90;;;;;;5114408;28;20481;-73
2023/05/09 00:40:36;;;;;;;13.73;9.50;;;14.80;99.90;;;;;;5114072;28;20051;-73
2023/05/09 00:43:03;;;;;;;12.40;8.23;;;14.70;99.90;;;;;;5114030;28;20043;-73
2023/05/09 00:45:29;;;;;;;12.30;9.18;;;14.70;99.90;;;;;;5113984;28;20036;-74
2023/05/09 00:47:56;;;;;;;12.35;9.30;;;14.70;99.90;;;;;;5113899;28;20402;-73
2023/05/09 00:50:23;;;;;;;12.80;9.10;;;14.80;99.90;;;;;;5113767;28;20122;-73
2023/05/09 00:52:49;;;;;;;;;;;14.70;99.90;;;;;;5114237;28;20042;-73
2023/05/09 00:55:15;;;;;;;13.88;9.45;;;14.80;99.90;;;;;;5113997;28;20275;-73
2023/05/09 00:57:41;;;;;;;13.30;10.18;;;14.60;99.90;;;;;;5113922;28;20032;-74
2023/05/09 01:00:11;;;;;;;11.23;8.80;;;14.70;99.90;;;;;;5113523;28;20734;-73
2023/05/09 01:02:39;;;;;;;12.85;9.98;;;14.60;99.90;;;;;;5113723;28;20040;-73
2023/05/09 01:05:05;;;;;;;12.15;9.27;;;14.70;99.90;;;;;;5113778;28;20055;-73
2023/05/09 01:07:48;;;;;;;13.47;9.20;;;14.60;99.90;;;;;;5114227;28;20039;-73
2023/05/09 01:10:36;;;;;;;14.10;10.10;;;14.60;99.90;;;;;;5113806;28;20331;-73
2023/05/09 01:13:31;;;;;;;12.13;8.95;;;14.50;99.90;;;;;;5113949;28;20074;-73
2023/05/09 01:16:16;;;;;;;13.60;9.50;;;14.50;99.90;;;;;;5093674;28;20051;-73
2023/05/09 01:18:50;;;;;;;11.50;9.10;;;14.50;99.90;;;;;;5093330;28;20036;-74
2023/05/09 01:21:31;;;;;;;12.98;8.88;;;14.50;99.90;;;;;;5093838;28;20124;-73
2023/05/09 01:24:21;;;;;;;12.70;8.90;;;14.50;99.90;;;;;;5092182;28;20040;-73
2023/05/09 01:27:15;;;;;;;12.52;9.20;;;14.50;99.90;;;;;;5093233;28;20123;-73
2023/05/09 01:29:44;;;;;;;11.65;9.40;;;14.40;99.90;;;;;;5093199;28;20050;-74
2023/05/09 01:32:16;;;;;;;11.70;8.63;;;14.40;99.90;;;;;;5093222;28;20114;-74
2023/05/09 01:34:43;;;;;;;11.63;8.63;;;14.40;99.90;;;;;;5095435;28;20043;-73
2023/05/09 01:37:11;;;;;;;12.05;8.80;;;14.40;99.90;;;;;;5096784;28;20044;-73
2023/05/09 01:39:40;;;;;;;14.63;9.50;;;14.40;99.90;;;;;;5096694;28;20495;-74
2023/05/09 01:42:09;;;;;;;12.73;9.48;;;14.40;99.90;;;;;;5097166;28;20075;-73
2023/05/09 01:44:40;;;;;;;13.95;9.75;;;14.40;99.90;;;;;;5096626;28;20048;-73
2023/05/09 01:47:07;;;;;;;12.50;10.02;;;14.40;99.90;;;;;;5096630;28;20044;-74
2023/05/09 01:49:35;;;;;;;13.18;9.77;;;14.40;99.90;;;;;;5095240;28;20048;-73
2023/05/09 01:52:05;;;;;;;13.65;9.35;;;14.40;99.90;;;;;;5096462;28;20127;-74
2023/05/09 01:54:33;;;;;;;14.32;10.40;;;14.40;99.90;;;;;;5096428;28;20047;-73
2023/05/09 01:57:01;;;;;;;11.98;9.63;;;14.40;99.90;;;;;;5095631;28;20114;-73
2023/05/09 01:59:28;;;;;;;12.02;9.65;;;14.40;99.90;;;;;;5096569;28;20352;-73
2023/05/09 02:01:55;;;;;;;13.85;9.73;;;14.40;99.90;;;;;;5096242;28;20373;-73
2023/05/09 02:04:21;;;;;;;13.40;9.85;;;14.40;99.90;;;;;;5096082;28;20139;-73
2023/05/09 02:06:52;;;;;;;12.87;9.43;;;14.30;99.90;;;;;;5096290;28;20071;-73
2023/05/09 02:09:18;;;;;;;11.50;8.95;;;14.30;99.90;;;;;;5096162;28;20718;-73
2023/05/09 02:11:44;;;;;;;;;;;14.30;99.90;;;;;;5096936;28;20036;-74
2023/05/09 02:14:10;;;;;;;14.00;8.77;;;14.30;99.90;;;;;;5096080;28;19916;-73
2023/05/09 02:16:38;;;;;;;12.48;9.15;;;14.30;99.90;;;;;;5095968;28;20089;-73
2023/05/09 02:19:03;;;;;;;11.75;9.13;;;14.30;99.90;;;;;;5095997;28;20464;-74
2023/05/09 02:21:29;;;;;;;12.87;8.80;;;14.30;99.90;;;;;;5095847;28;20036;-73
2023/05/09 02:23:55;;;;;;;11.90;8.80;;;14.30;99.90;;;;;;5095948;28;20123;-73
2023/05/09 02:26:21;;;;;;;13.60;9.20;;;14.30;99.90;;;;;;5095842;28;20044;-73
2023/05/09 02:28:48;;;;;;;13.07;9.30;;;14.20;99.90;;;;;;5095776;28;20039;-74
2023/05/09 02:31:16;;;;;;;18.95;9.48;;;14.20;99.90;;;;;;5095785;28;20036;-73
2023/05/09 02:33:44;;;;;;;14.68;9.05;;;14.20;99.90;;;;;;5095349;28;20461;-73
2023/05/09 02:36:10;;;;;;;17.55;8.43;;;14.20;99.90;;;;;;5095651;28;20079;-74
2023/05/09 02:38:36;;;;;;;11.70;8.68;;;14.20;99.90;;;;;;5095607;28;20456;-73
2023/05/09 02:41:01;;;;;;;13.40;8.57;;;14.20;99.90;;;;;;5095421;28;20114;-73
2023/05/09 02:43:27;;;;;;;13.85;9.40;;;14.20;99.90;;;;;;5094669;28;20089;-73
2023/05/09 02:45:53;;;;;;;13.17;8.30;;;14.20;99.90;;;;;;5095119;28;20488;-73
2023/05/09 02:48:18;;;;;;;12.00;9.00;;;14.20;99.90;;;;;;5095462;28;20044;-73
2023/05/09 02:50:44;;;;;;;12.47;9.07;;;14.20;99.90;;;;;;5095304;28;20040;-74
2023/05/09 02:53:10;;;;;;;12.77;9.77;;;14.30;99.90;;;;;;5095834;28;20058;-73
2023/05/09 02:55:36;;;;;;;11.40;9.10;;;14.30;99.90;;;;;;5095311;28;20364;-74
2023/05/09 02:58:01;;;;;;;13.00;9.57;;;14.20;99.90;;;;;;5095221;28;20039;-74
2023/05/09 03:00:27;;;;;;;14.63;9.80;;;14.50;99.90;;;;;;5095203;28;20044;-73
2023/05/09 03:02:53;;;;;;;15.30;10.13;;;14.20;99.90;;;;;;5095328;28;20154;-73
2023/05/09 03:05:19;;;;;;;13.77;9.63;;;14.20;99.90;;;;;;5095140;28;20063;-74
2023/05/09 03:07:45;;;;;;;16.27;10.10;;;14.20;99.90;;;;;;5094771;28;20044;-73
2023/05/09 03:10:11;;;;;;;13.90;9.93;;;14.20;99.90;;;;;;5095004;28;20040;-73
2023/05/09 03:12:37;;;;;;;13.77;9.60;;;14.20;99.90;;;;;;5095311;28;20052;-73
2023/05/09 03:15:05;;;;;;;14.95;9.18;;;14.20;99.90;;;;;;5095062;28;20044;-74
2023/05/09 03:17:30;;;;;;;13.55;10.27;;;14.20;99.90;;;;;;5094096;28;20051;-73
2023/05/09 03:19:56;;;;;;;11.87;9.47;;;14.10;99.90;;;;;;5094618;28;20375;-73
2023/05/09 03:22:21;;;;;;;14.13;9.83;;;14.10;99.90;;;;;;5094751;28;20070;-74
2023/05/09 03:24:47;;;;;;;13.23;10.00;;;14.10;99.90;;;;;;5094714;28;20379;-73
2023/05/09 03:27:13;;;;;;;14.00;10.20;;;14.50;99.90;;;;;;5095050;28;20104;-73
2023/05/09 03:29:38;;;;;;;13.73;9.90;;;14.40;99.90;;;;;;5094581;28;20494;-73
2023/05/09 03:32:04;;;;;;;15.60;10.60;;;14.10;99.90;;;;;;5094580;28;20125;-74
2023/05/09 03:34:30;;;;;;;14.30;10.00;;;14.10;99.90;;;;;;5094605;28;20047;-73
2023/05/09 03:36:56;;;;;;;14.18;9.93;;;14.40;99.90;;;;;;5094497;28;20488;-73
2023/05/09 03:39:21;;;;;;;15.57;11.00;;;14.30;99.90;;;;;;5094573;28;20511;-74
2023/05/09 03:41:48;;;;;;;16.43;10.93;;;14.10;99.90;;;;;;5094758;28;20048;-73
2023/05/09 03:44:13;;;;;;;17.73;11.07;;;14.10;99.90;;;;;;5094428;28;20040;-73
2023/05/09 03:46:39;;;;;;;15.70;10.87;;;14.20;99.90;;;;;;5094552;28;20036;-73
2023/05/09 03:49:05;;;;;;;13.95;10.43;;;14.10;99.90;;;;;;5094122;28;20106;-73
2023/05/09 03:51:31;;;;;;;17.53;11.30;;;14.10;99.90;;;;;;5094234;28;20040;-73
2023/05/09 03:53:57;;;;;;;15.35;10.15;;;14.10;99.90;;;;;;5094221;28;20119;-73
2023/05/09 03:56:22;;;;;;;16.37;10.07;;;14.10;99.90;;;;;;5093488;28;20137;-74
2023/05/09 03:58:48;;;;;;;18.20;11.13;;;14.10;99.90;;;;;;5093014;28;20051;-73
2023/05/09 04:01:14;;;;;;;18.90;11.13;;;14.10;99.90;;;;;;5094292;28;20464;-73
2023/05/09 04:03:41;;;;;;;19.17;11.25;;;14.10;99.90;;;;;;5093878;28;20043;-74
2023/05/09 04:06:06;;;;;;;17.27;10.90;;;14.10;99.90;;;;;;5094050;28;20119;-73
2023/05/09 04:08:32;;;;;;;17.17;11.37;;;14.10;99.90;;;;;;5093665;28;20115;-73
2023/05/09 04:10:58;;;;;;;17.92;11.10;;;14.10;99.90;;;;;;5094382;28;20039;-74
2023/05/09 04:13:23;;;;;;;18.27;11.87;;;14.00;99.90;;;;;;5093986;28;20039;-73
2023/05/09 04:15:50;;;;;;;17.70;11.83;;;14.10;99.90;;;;;;5093957;28;20036;-73
2023/05/09 04:18:15;;;;;;;17.25;12.10;;;14.10;99.90;;;;;;5093758;28;20040;-73
2023/05/09 04:20:41;;;;;;;18.45;12.25;;;14.10;99.90;;;;;;5093773;28;20036;-73
2023/05/09 04:23:06;;;;;;;16.13;11.33;;;14.00;99.90;;;;;;5093929;28;20491;-73
2023/05/09 04:25:34;;;;;;;16.90;11.10;;;14.10;99.90;;;;;;5093840;28;20040;-73
2023/05/09 04:27:59;;;;;;;20.75;12.60;;;14.00;99.90;;;;;;5092557;28;20036;-73
2023/05/09 04:30:26;;;;;;;17.30;11.47;;;14.10;99.90;;;;;;5092493;28;20032;-74
2023/05/09 04:32:52;;;;;;;20.07;12.47;;;14.10;99.90;;;;;;5093838;28;20079;-74
2023/05/09 04:35:18;;;;;;;19.92;13.55;;;14.10;99.90;;;;;;5093425;28;20083;-73
2023/05/09 04:37:44;;;;;;;19.08;12.48;;;14.10;99.90;;;;;;5093394;28;20518;-73
2023/05/09 04:40:10;;;;;;;17.98;12.77;;;14.30;99.90;;;;;;5093650;28;20380;-73
2023/05/09 04:42:36;;;;;;;19.77;12.43;;;14.10;99.90;;;;;;5092476;28;20044;-73
2023/05/09 04:45:02;;;;;;;17.90;11.63;;;14.40;99.90;;;;;;5093507;28;20840;-73
2023/05/09 04:47:28;;;;;;;18.20;12.83;;;14.10;99.90;;;;;;5093528;28;20044;-72
2023/05/09 04:49:53;;;;;;;18.47;12.80;;;14.20;99.90;;;;;;5093447;28;20058;-72
2023/05/09 04:52:19;;;;;;;17.67;13.37;;;14.10;99.90;;;;;;5093923;28;20040;-72
2023/05/09 04:54:44;;;;;;;19.52;13.63;;;14.10;99.90;;;;;;5093580;28;20036;-72
2023/05/09 04:57:10;;;;;;;20.35;13.35;;;14.20;99.90;;;;;;5092404;28;20044;-72
2023/05/09 04:59:36;;;;;;;20.77;12.97;;;14.20;99.90;;;;;;5093791;28;20079;-72
2023/05/09 05:02:02;;;;;;;19.17;13.63;;;14.20;99.90;;;;;;5093550;28;20044;-72
2023/05/09 05:04:28;;;;;;;18.00;13.10;;;14.20;99.90;;;;;;5093421;28;20048;-72
2023/05/09 05:06:53;;;;;;;21.97;14.03;;;14.20;99.90;;;;;;5093193;28;20544;-73
2023/05/09 05:09:19;;;;;;;18.33;13.15;;;14.30;99.90;;;;;;5096727;28;20032;-72
2023/05/09 05:11:45;;;;;;;22.08;13.77;;;14.30;99.90;;;;;;5097335;28;20427;-72
2023/05/09 05:14:10;;;;;;;22.45;14.05;;;14.40;99.90;;;;;;5097286;28;20035;-72
2023/05/09 05:16:36;;;;;;;20.77;13.40;;;14.20;99.90;;;;;;5097255;28;20106;-72
2023/05/09 05:19:02;;;;;;;20.33;12.75;;;14.50;99.90;;;;;;5096877;28;20040;-71
2023/05/09 05:21:27;;;;;;;20.13;13.43;;;14.50;99.90;;;;;;5097038;28;20044;-72
2023/05/09 05:23:53;;;;;;;20.07;12.97;;;14.50;99.90;;;;;;5097486;28;20081;-72
2023/05/09 05:26:19;;;;;;;19.70;14.03;;;14.50;99.90;;;;;;5097020;28;20047;-72
2023/05/09 05:28:45;;;;;;;20.17;14.57;;;14.50;99.90;;;;;;5096938;28;20062;-72
2023/05/09 05:31:11;;;;;;;21.35;13.93;;;14.60;99.90;;;;;;5096910;28;20107;-72
2023/05/09 05:33:36;;;;;;;23.25;14.85;;;14.60;99.90;;;;;;5096884;28;20040;-72
2023/05/09 05:36:02;;;;;;;19.83;14.07;;;14.60;99.90;;;;;;5095631;28;20452;-72
2023/05/09 05:38:30;;;;;;;20.90;13.47;;;14.60;99.90;;;;;;5097339;28;20063;-78
2023/05/09 05:40:55;;;;;;;23.35;14.73;;;14.70;99.90;;;;;;5096909;28;20076;-73
2023/05/09 05:43:21;;;;;;;21.90;14.93;;;14.70;99.90;;;;;;5097117;28;20079;-76
2023/05/09 05:45:47;;;;;;;22.43;14.37;;;14.70;99.90;;;;;;5096732;28;20089;-73
2023/05/09 05:48:12;;;;;;;23.60;16.07;;;14.70;99.90;;;;;;5096262;28;20093;-74
2023/05/09 05:50:38;;;;;;;22.27;14.27;;;14.70;99.90;;;;;;5096428;28;20046;-73
2023/05/09 05:53:04;;;;;;;21.87;15.17;;;14.70;99.90;;;;;;5111142;28;20035;-73
2023/05/09 05:55:29;;;;;;;24.80;15.90;;;14.60;99.90;;;;;;5116493;28;20474;-73
2023/05/09 05:57:55;;;;;;;20.58;14.77;;;14.70;99.90;;;;;;5116397;28;20101;-73
2023/05/09 06:00:20;;;;;;;22.67;15.13;;;14.70;99.90;;;;;;5116305;28;20040;-73
2023/05/09 06:02:46;;;;;;;20.60;14.37;;;14.70;99.90;;;;;;5116284;28;20040;-73
2023/05/09 06:05:12;;;;;;;21.57;15.03;;;14.70;99.90;;;;;;5116528;28;20055;-73
2023/05/09 06:07:43;;;;;;;21.83;15.00;;;14.70;99.90;;;;;;5116060;28;20036;-73
2023/05/09 06:10:09;;;;;;;22.98;15.45;;;14.70;99.90;;;;;;5116440;28;20039;-73
2023/05/09 06:12:35;;;;;;;25.67;16.05;;;14.70;99.90;;;;;;5116227;28;20092;-73
2023/05/09 06:15:03;;;;;;;20.67;14.57;;;14.70;99.90;;;;;;5116144;28;20396;-73
2023/05/09 06:17:29;;;;;;;21.58;15.70;;;14.80;99.90;;;;;;5116401;28;20067;-73
2023/05/09 06:19:55;;;;;;;21.20;14.30;;;14.80;99.90;;;;;;5115453;28;20082;-73
2023/05/09 06:22:20;;;;;;;24.50;15.00;;;14.80;99.90;;;;;;5116118;28;20123;-73
2023/05/09 06:24:46;;;;;;;23.50;14.90;;;14.80;99.90;;;;;;5116045;28;20096;-77
2023/05/09 06:27:11;;;;;;;21.33;14.80;;;14.80;99.90;;;;;;5115954;28;20071;-73
2023/05/09 06:29:37;;;;;;;20.47;14.80;;;14.90;99.90;;;;;;5115558;28;20081;-73
2023/05/09 06:32:03;;;;;;;22.25;14.57;;;14.90;99.90;;;;;;5115825;28;20379;-72
2023/05/09 06:34:28;;;;;;;26.53;16.07;;;14.90;99.90;;;;;;5115552;28;20475;-72
2023/05/09 06:36:54;;;;;;;17.90;13.45;;;14.90;99.90;;;;;;5115943;28;20035;-72
2023/05/09 06:39:19;;;;;;;20.97;14.80;;;14.90;99.90;;;;;;5115780;28;20032;-72
2023/05/09 06:41:45;;;;;;;22.07;15.10;;;15.00;99.90;;;;;;5115644;28;20131;-72
2023/05/09 06:44:11;;;;;;;19.63;13.83;;;15.00;99.90;;;;;;5115567;28;20031;-72
2023/05/09 06:46:36;;;;;;;22.40;15.67;;;15.00;99.90;;;;;;5115803;28;20039;-72
2023/05/09 06:49:02;;;;;;;22.77;14.93;;;15.00;99.90;;;;;;5114299;28;20039;-73
2023/05/09 06:51:28;;;;;;;20.73;15.18;;;15.00;99.90;;;;;;5115268;28;20053;-71
2023/05/09 06:53:53;;;;;;;20.23;13.97;;;15.00;99.90;;;;;;5115644;28;20039;-71
2023/05/09 06:56:21;;;;;;;18.87;13.93;;;15.10;99.90;;;;;;5115574;28;20040;-75
2023/05/09 06:58:47;;;;;;;19.83;14.73;;;15.20;99.90;;;;;;5115221;28;20043;-75
2023/05/09 07:01:12;;;;;;;21.73;13.73;;;15.20;99.90;;;;;;5115130;28;20046;-73
2023/05/09 07:03:38;;;;;;;22.23;15.03;;;15.30;99.90;;;;;;5115309;28;20075;-72
2023/05/09 07:06:06;;;;;;;22.38;14.25;;;15.20;99.90;;;;;;5115003;28;20035;-74
2023/05/09 07:08:31;;;;;;;21.75;14.82;;;15.30;99.90;;;;;;5115229;28;20035;-72
2023/05/09 07:10:57;;;;;;;22.63;14.87;;;15.30;99.90;;;;;;5115241;28;20043;-74
2023/05/09 07:13:23;;;;;;;22.07;15.37;;;15.30;99.90;;;;;;5115065;28;20100;-72
2023/05/09 07:15:48;;;;;;;22.27;14.80;;;15.40;99.90;;;;;;5115210;28;20193;-72
2023/05/09 07:18:14;;;;;;;19.53;14.30;;;15.30;99.90;;;;;;5115131;28;20074;-71
2023/05/09 07:20:40;;;;;;;18.33;14.40;;;15.30;99.90;;;;;;5114988;28;20101;-70
2023/05/09 07:23:05;;;;;;;19.97;14.53;;;15.30;99.90;;;;;;5115129;28;20077;-72
2023/05/09 07:25:31;;;;;;;20.33;14.40;;;15.30;99.90;;;;;;5115067;28;20051;-76
2023/05/09 07:27:57;;;;;;;21.00;14.53;;;15.30;99.90;;;;;;5114403;28;20123;-74
2023/05/09 07:30:23;;;;;;;22.08;14.15;;;15.30;99.90;;;;;;5114614;28;20123;-72
2023/05/09 07:32:48;;;;;;;21.67;14.30;;;15.40;99.90;;;;;;5113844;28;20076;-73
2023/05/09 07:35:14;;;;;;;20.30;14.27;;;15.40;99.90;;;;;;5114649;28;20039;-73
2023/05/09 07:37:40;;;;;;;22.80;13.73;;;15.40;99.90;;;;;;5114407;28;20035;-73
2023/05/09 07:40:06;;;;;;;20.83;14.87;;;15.40;99.90;;;;;;5114683;28;20118;-73
2023/05/09 07:42:32;;;;;;;22.95;15.95;;;15.40;99.90;;;;;;5114371;28;20054;-72
2023/05/09 07:44:58;;;;;;;21.53;14.90;;;15.40;99.90;;;;;;5114532;28;20043;-74
2023/05/09 07:47:24;;;;;;;24.42;15.02;;;15.50;99.90;;;;;;5114707;28;20035;-72
2023/05/09 07:49:50;;;;;;;20.53;15.20;;;15.50;99.90;;;;;;5114411;28;20360;-76
2023/05/09 07:52:16;;;;;;;24.38;15.77;;;15.60;99.90;;;;;;5114476;28;20276;-77
2023/05/09 07:54:42;;;;;;;21.97;14.73;;;15.60;99.90;;;;;;5114540;28;20348;-77
2023/05/09 07:57:08;;;;;;;21.07;15.30;;;15.70;99.90;;;;;;5114531;28;20092;-75
2023/05/09 07:59:33;;;;;;;20.63;14.95;;;15.70;99.90;;;;;;5114371;28;20273;-77
2023/05/09 08:01:59;;;;;;;22.37;14.90;;;15.80;99.90;;;;;;5114047;28;20114;-73
2023/05/09 08:04:25;;;;;;;30.27;15.30;;;15.90;99.90;;;;;;5113906;28;20087;-73
2023/05/09 08:06:51;;;;;;;23.80;14.97;;;16.00;99.90;;;;;;5113150;28;20051;-72
2023/05/09 08:09:17;;;;;;;22.83;14.57;;;16.00;99.90;;;;;;5114219;28;20098;-73
2023/05/09 08:11:43;;;;;;;24.30;15.38;;;16.10;99.90;;;;;;5114071;28;20032;-74
2023/05/09 08:14:08;;;;;;;24.40;14.57;;;16.20;99.90;;;;;;5114157;28;20058;-73
2023/05/09 08:16:34;;;;;;;25.23;14.20;;;16.30;99.90;;;;;;5112981;28;20089;-73
2023/05/09 08:19:00;;;;;;;25.10;16.47;;;16.40;99.90;;;;;;5114126;28;20035;-74
2023/05/09 08:21:25;;;;;;;22.83;15.87;;;16.50;99.90;;;;;;5114114;28;20082;-72
2023/05/09 08:23:51;;;;;;;30.47;15.17;;;16.60;99.90;;;;;;5114060;28;20484;-77
2023/05/09 08:26:17;;;;;;;25.63;15.57;;;16.90;99.90;;;;;;5113986;28;20040;-75
2023/05/09 08:28:43;;;;;;;24.63;15.37;;;16.90;99.90;;;;;;5113815;28;20039;-72
2023/05/09 08:31:08;;;;;;;27.50;15.73;;;17.00;99.90;;;;;;5113843;28;20058;-73
2023/05/09 08:33:34;;;;;;;24.97;14.73;;;17.00;99.90;;;;;;5113758;28;20062;-73
2023/05/09 08:36:00;;;;;;;23.47;15.00;;;17.00;99.90;;;;;;5113655;28;20085;-72
2023/05/09 08:38:27;;;;;;;25.87;15.97;;;17.00;99.90;;;;;;5114014;28;20049;-73
2023/05/09 08:40:58;;;;;;;24.83;13.90;;;17.00;99.90;;;;;;5112723;28;20048;-72
2023/05/09 08:43:24;;;;;;;27.38;15.38;;;17.00;99.90;;;;;;5116091;28;20036;-72
2023/05/09 08:45:53;;;;;;;28.77;15.57;;;17.00;99.90;;;;;;5116652;28;20478;-73
2023/05/09 08:48:20;;;;;;;26.40;15.68;;;17.10;99.90;;;;;;5117549;27;20039;-73
2023/05/09 08:50:46;;;;;;;25.95;15.25;;;17.10;99.90;;;;;;5118119;28;20050;-72
2023/05/09 08:53:13;;;;;;;26.40;15.13;;;17.20;99.90;;;;;;5117914;28;20504;-73
2023/05/09 08:55:39;;;;;;;25.75;15.13;;;17.30;99.90;;;;;;5117741;28;20036;-74
2023/05/09 08:58:04;;;;;;;23.58;15.60;;;17.30;99.90;;;;;;5117752;28;20427;-73
2023/05/09 09:00:32;;;;;;;25.60;15.70;;;17.30;99.90;;;;;;5117857;28;20074;-74
2023/05/09 09:03:00;;;;;;;27.00;15.93;;;17.30;99.90;;;;;;5117691;27;20040;-73
2023/05/09 09:05:28;;;;;;;23.75;15.40;;;17.30;99.90;;;;;;5117790;28;20056;-73
2023/05/09 09:07:55;;;;;;;25.20;14.75;;;17.20;99.90;;;;;;5117512;27;20052;-75
2023/05/09 09:10:24;;;;;;;28.08;15.82;;;17.20;99.90;;;;;;5117253;28;20516;-74
2023/05/09 09:12:52;;;;;;;26.08;16.92;;;17.20;99.90;;;;;;5117544;28;20040;-74
2023/05/09 09:15:21;;;;;;;25.83;15.95;;;17.20;99.90;;;;;;5117255;28;20044;-74
2023/05/09 09:17:49;;;;;;;29.92;15.93;;;17.20;99.90;;;;;;5117319;28;20118;-74
2023/05/09 09:20:19;;;;;;;26.45;15.10;;;17.30;99.90;;;;;;5117466;28;20043;-74
2023/05/09 09:22:47;;;;;;;25.58;17.00;;;17.40;99.90;;;;;;5117409;28;20035;-74
2023/05/09 09:25:13;;;;;;;28.10;17.33;;;17.60;99.90;;;;;;5116869;27;20050;-74
2023/05/09 09:27:40;;;;;;;27.53;16.40;;;17.60;99.90;;;;;;5117232;28;20043;-73
2023/05/09 09:30:11;;;;;;;28.17;16.25;;;17.60;99.90;;;;;;5117052;28;20085;-73
2023/05/09 09:32:38;;;;;;;27.10;16.55;;;17.70;99.90;;;;;;5117219;27;20044;-74
2023/05/09 09:35:06;;;;;;;25.42;17.83;;;17.80;99.90;;;;;;5116757;28;20082;-74
2023/05/09 09:37:38;;;;;;;21.70;14.73;;;17.80;99.90;;;;;;5116903;28;20053;-74
2023/05/09 09:40:09;;;;;;;25.48;16.98;;;17.90;99.90;;;;;;5116871;28;20044;-73
2023/05/09 09:42:47;;;;;;;26.02;16.88;;;18.00;99.90;;;;;;5115894;28;20036;-74
2023/05/09 09:45:16;;;;;;;24.77;16.80;;;18.10;99.90;;;;;;5116793;28;20031;-73
2023/05/09 09:47:43;;;;;;;27.33;16.70;;;18.10;99.90;;;;;;5117054;28;20035;-74
2023/05/09 09:50:16;;;;;;;24.05;16.35;;;18.00;99.90;;;;;;5116861;27;20073;-73
2023/05/09 09:52:49;;;;;;;26.38;17.17;;;17.90;99.90;;;;;;5116870;28;20086;-73
2023/05/09 09:55:15;;;;;;;32.80;18.42;;;18.00;99.90;;;;;;5115420;28;20035;-73
2023/05/09 09:57:43;;;;;;;29.33;16.90;;;18.00;99.90;;;;;;5116459;28;20469;-74
2023/05/09 10:00:10;;;;;;;34.17;19.50;;;18.00;99.90;;;;;;5116651;28;20277;-74
2023/05/09 10:02:45;;;;;;;;;;;17.80;99.90;;;;;;5117082;28;20088;-74
2023/05/09 10:05:11;;;;;;;30.27;18.70;;;17.70;99.90;;;;;;5116527;28;19944;-73
2023/05/09 10:07:37;;;;;;;34.60;18.60;;;17.70;99.90;;;;;;5116029;28;20044;-74
2023/05/09 10:10:04;;;;;;;31.98;19.10;;;17.70;99.90;;;;;;5116290;28;20035;-73
2023/05/09 10:12:36;;;;;;;29.85;18.38;;;17.80;99.90;;;;;;5116118;28;20524;-73
2023/05/09 10:15:07;;;;;;;30.63;18.08;;;17.90;99.90;;;;;;5116081;28;20487;-73
2023/05/09 10:17:34;;;;;;;31.45;18.17;;;18.10;99.90;;;;;;5116309;28;20538;-73
2023/05/09 10:20:04;;;;;;;29.10;17.52;;;18.20;99.90;;;;;;5116373;28;20039;-74
2023/05/09 10:22:32;;;;;;;28.77;17.73;;;18.50;99.90;;;;;;5115918;28;20048;-74
2023/05/09 10:25:05;;;;;;;32.97;19.45;;;18.70;99.90;;;;;;5116154;28;20046;-74
2023/05/09 10:27:34;;;;;;;33.42;19.67;;;18.70;99.90;;;;;;5116091;28;20092;-74
2023/05/09 10:30:07;;;;;;;35.05;18.55;;;18.90;99.90;;;;;;5115956;28;20088;-76
2023/05/09 10:32:52;;;;;;;38.15;20.75;;;18.90;99.90;;;;;;5115817;28;20042;-75
2023/05/09 10:35:35;;;;;;;32.50;18.52;;;19.00;99.90;;;;;;5115829;28;20039;-77
2023/05/09 10:38:01;;;;;;;35.80;19.15;;;18.90;99.90;;;;;;5097707;28;20225;-79
2023/05/09 10:40:28;;;;;;;35.25;17.67;;;19.00;99.90;;;;;;5115765;28;20231;-77
2023/05/09 10:42:53;;;;;;;30.60;17.02;;;19.10;99.90;;;;;;5116010;28;20127;-79
2023/05/09 10:45:20;;;;;;;34.23;18.77;;;19.10;99.90;;;;;;5115460;28;20118;-80
2023/05/09 10:47:49;;;;;;;34.40;18.70;;;19.00;99.90;;;;;;5115795;28;20116;-81
2023/05/09 10:50:15;;;;;;;36.88;19.50;;;18.90;99.90;;;;;;5115446;28;20047;-79
2023/05/09 10:53:03;;;;;;;36.08;18.73;;;18.70;99.90;;;;;;5097581;28;20039;-78
2023/05/09 10:55:36;;;;;;;33.95;19.15;;;18.90;99.90;;;;;;5115269;28;20047;-75
2023/05/09 10:58:19;;;;;;;37.70;19.55;;;19.10;99.90;;;;;;5115097;28;20100;-76
2023/05/09 11:00:48;;;;;;;35.58;20.50;;;19.30;99.90;;;;;;5115579;28;20104;-77
2023/05/09 11:03:14;;;;;;;36.22;20.45;;;19.50;99.90;;;;;;5115434;28;20036;-76
2023/05/09 11:05:40;;;;;;;43.07;21.47;;;19.50;99.90;;;;;;5115266;28;20490;-76
2023/05/09 11:08:22;;;;;;;40.10;21.60;;;19.50;99.90;;;;;;5115026;28;20036;-77
2023/05/09 11:10:48;;;;;;;43.50;22.67;;;19.50;99.90;;;;;;5114279;28;20092;-75
2023/05/09 11:13:20;;;;;;;44.70;22.70;;;19.60;99.90;;;;;;5115301;27;20123;-77
2023/05/09 11:16:00;;;;;;;45.65;23.40;;;19.70;99.90;;;;;;5115277;27;20039;-76
2023/05/09 11:18:32;;;;;;;52.70;25.52;;;19.90;99.90;;;;;;5115010;28;20391;-78
2023/05/09 11:20:58;;;;;;;38.55;22.13;;;19.90;99.90;;;;;;5113614;28;20039;-78
2023/05/09 11:23:32;;;;;;;42.92;21.33;;;20.10;99.90;;;;;;5114718;28;20501;-78
2023/05/09 11:26:07;;;;;;;39.40;22.33;;;20.20;99.90;;;;;;5115199;28;20047;-79
2023/05/09 11:28:35;;;;;;;37.13;21.33;;;20.30;99.90;;;;;;5114676;28;20375;-75
2023/05/09 11:31:17;;;;;;;43.55;23.25;;;20.40;99.90;;;;;;5114813;28;20068;-72
2023/05/09 11:33:45;;;;;;;42.50;23.77;;;20.30;99.90;;;;;;5114491;28;20052;-73
2023/05/09 11:36:24;;;;;;;42.30;22.65;;;20.30;99.90;;;;;;5113186;27;20410;-77
2023/05/09 11:39:02;;;;;;;39.47;22.13;;;20.30;99.90;;;;;;5114379;27;20039;-77
2023/05/09 11:41:28;;;;;;;36.50;22.05;;;20.10;99.90;;;;;;5113154;28;20121;-76
2023/05/09 11:43:55;;;;;;;40.95;22.33;;;20.00;99.90;;;;;;5114334;28;20039;-76
2023/05/09 11:46:21;;;;;;;47.45;24.60;;;19.90;99.90;;;;;;5112989;28;20040;-74
2023/05/09 11:48:47;;;;;;;48.63;24.07;;;19.80;99.90;;;;;;5114140;28;20100;-75
2023/05/09 11:51:17;;;;;;;49.97;26.70;;;19.80;99.90;;;;;;5114679;28;20376;-74
2023/05/09 11:53:45;;;;;;;44.38;25.85;;;19.70;99.90;;;;;;5114310;28;20035;-76
2023/05/09 11:56:13;;;;;;;51.15;27.92;;;19.50;99.90;;;;;;5113451;28;20117;-77
2023/05/09 11:58:39;;;;;;;57.40;26.10;;;19.40;99.90;;;;;;5114016;28;20388;-74
2023/05/09 12:01:05;;;;;;;51.27;26.03;;;19.30;99.90;;;;;;5114324;28;20118;-74
2023/05/09 12:03:32;;;;;;;51.90;27.42;;;19.20;99.90;;;;;;5113807;28;20475;-74
2023/05/09 12:05:57;;;;;;;51.28;26.70;;;19.00;99.90;;;;;;5114261;28;20529;-77
2023/05/09 12:08:24;;;;;;;51.27;27.33;;;18.90;99.90;;;;;;5114164;28;20044;-75
2023/05/09 12:10:50;;;;;;;52.15;26.73;;;18.90;99.90;;;;;;5113169;28;20036;-80
2023/05/09 12:13:16;;;;;;;46.45;25.08;;;18.70;99.90;;;;;;5114138;28;20044;-76
2023/05/09 12:15:42;;;;;;;54.38;27.77;;;18.70;99.90;;;;;;5114128;28;20502;-76
2023/05/09 12:18:08;;;;;;;50.23;26.13;;;18.70;99.90;;;;;;5113072;28;20079;-79
2023/05/09 12:20:46;;;;;;;52.47;26.33;;;18.70;99.90;;;;;;5114153;28;20043;-74
2023/05/09 12:23:13;;;;;;;48.08;25.42;;;18.80;99.90;;;;;;5114095;28;20046;-74
2023/05/09 12:25:52;;;;;;;47.80;25.27;;;18.90;99.90;;;;;;5113710;28;20079;-74
2023/05/09 12:28:23;;;;;;;46.38;25.02;;;19.10;99.90;;;;;;5114286;28;20050;-74
2023/05/09 12:30:50;;;;;;;49.65;26.55;;;19.10;99.90;;;;;;5114234;28;20036;-75
2023/05/09 12:33:16;;;;;;;46.13;25.48;;;19.20;99.90;;;;;;5113621;28;20118;-74